Airfield :
LOGIN :

Register | Disclaimer

   EN    FR    IT 

 










Legend :    VFR   Marginal VFR   IFR   Intensive IFR   Very Intensive IFR
Visi :
Ceiling :
>= 8 km
>= 3000ft
5 to 8 km
1000 to 3000 ft
1500m to 5 km
500 to 1000 ft
800 to 1500m
200 to 500 ft
< 800m
< 200 ft
Symbols :   Thunderstorms  Fog  Heavy snow  Heavy precipitations  Wind > 20 kt
SIGMETs :     Misc.  Thunderstorms  Icing  Turbulence  Mountain Waves  Volcanic Ashes






- Airport Elevation : 39 ft
- IATA code : ANR


EBAW - Anvers / Antwerpen Deurne

CURRENT METAR :
  • 021720Z 35005KT 290V020 9999 FEW045 19/09 Q1014 NOSIG

EXPIRED METARs :
  • 021650Z 34006KT 310V020 9999 FEW045 20/09 Q1014 NOSIG
  • 021620Z 32004KT 270V030 9999 FEW041 20/09 Q1015 NOSIG
  • 021550Z 33006KT 300V040 9999 FEW041 20/10 Q1015 NOSIG
  • 021520Z 30008KT 270V330 9999 FEW041 20/10 Q1015 NOSIG
  • 021450Z 29008KT 240V330 9999 FEW036 20/10 Q1015 NOSIG

TAF TAF EBAW
Valid from the 02 at 18:00 until the 03 at 03:00 UTC


021710Z 0218/0303 02005KT 9999 SCT035



MET'MAP, your aeronautical weather chart ! - Copyright ORBIFLY December 2007 - Disclaimer

ORBIFLY MET'MAP TEAM :

Programming & Development : Alexandra Zaïnal
Concept & original design : Baudouin d'Aumeries
Assistance for programming : Marc-Olivier Méhu
Technical & hardware support : Manuel Goepfert

Contact : metmap@orbifly.com




SOURCES & CREDITS :

   NOAA